sensor_id;sensor_type;location;lat;lon;timestamp;P1;durP1;ratioP1;P2;durP2;ratioP2
71303;SDS011;59091;47.446;19.148;2023-12-22T00:01:05;23.42;;;15.00;;
71303;SDS011;59091;47.446;19.148;2023-12-22T00:03:30;21.38;;;12.80;;
71303;SDS011;59091;47.446;19.148;2023-12-22T00:05:56;19.58;;;11.18;;
71303;SDS011;59091;47.446;19.148;2023-12-22T00:08:21;19.13;;;12.27;;
71303;SDS011;59091;47.446;19.148;2023-12-22T00:10:48;19.92;;;12.95;;
71303;SDS011;59091;47.446;19.148;2023-12-22T00:13:14;22.33;;;14.30;;
71303;SDS011;59091;47.446;19.148;2023-12-22T00:15:39;25.55;;;16.27;;
71303;SDS011;59091;47.446;19.148;2023-12-22T00:18:05;29.10;;;16.00;;
71303;SDS011;59091;47.446;19.148;2023-12-22T00:20:31;27.52;;;15.63;;
71303;SDS011;59091;47.446;19.148;2023-12-22T00:22:56;27.75;;;16.10;;
71303;SDS011;59091;47.446;19.148;2023-12-22T00:25:22;26.83;;;15.73;;
71303;SDS011;59091;47.446;19.148;2023-12-22T00:27:47;25.67;;;15.70;;
71303;SDS011;59091;47.446;19.148;2023-12-22T00:30:13;29.65;;;16.10;;
71303;SDS011;59091;47.446;19.148;2023-12-22T00:32:39;23.58;;;15.18;;
71303;SDS011;59091;47.446;19.148;2023-12-22T00:35:04;29.65;;;16.95;;
71303;SDS011;59091;47.446;19.148;2023-12-22T00:37:30;28.92;;;16.90;;
71303;SDS011;59091;47.446;19.148;2023-12-22T00:39:55;28.55;;;17.42;;
71303;SDS011;59091;47.446;19.148;2023-12-22T00:42:21;30.80;;;17.30;;
71303;SDS011;59091;47.446;19.148;2023-12-22T00:44:46;30.25;;;17.48;;
71303;SDS011;59091;47.446;19.148;2023-12-22T00:47:12;25.00;;;15.50;;
71303;SDS011;59091;47.446;19.148;2023-12-22T00:49:37;26.30;;;15.60;;
71303;SDS011;59091;47.446;19.148;2023-12-22T00:52:03;20.80;;;13.93;;
71303;SDS011;59091;47.446;19.148;2023-12-22T00:54:28;20.08;;;13.20;;
71303;SDS011;59091;47.446;19.148;2023-12-22T00:56:56;23.48;;;13.57;;
71303;SDS011;59091;47.446;19.148;2023-12-22T00:59:22;20.27;;;13.15;;
71303;SDS011;59091;47.446;19.148;2023-12-22T01:01:48;17.85;;;11.77;;
71303;SDS011;59091;47.446;19.148;2023-12-22T01:04:14;18.20;;;10.85;;
71303;SDS011;59091;47.446;19.148;2023-12-22T01:06:40;14.00;;;9.32;;
71303;SDS011;59091;47.446;19.148;2023-12-22T01:09:05;16.15;;;9.50;;
71303;SDS011;59091;47.446;19.148;2023-12-22T01:11:31;13.95;;;9.05;;
71303;SDS011;59091;47.446;19.148;2023-12-22T01:13:56;12.75;;;8.65;;
71303;SDS011;59091;47.446;19.148;2023-12-22T01:16:22;14.30;;;7.93;;
71303;SDS011;59091;47.446;19.148;2023-12-22T01:18:49;9.63;;;6.82;;
71303;SDS011;59091;47.446;19.148;2023-12-22T01:21:15;9.25;;;6.40;;
71303;SDS011;59091;47.446;19.148;2023-12-22T01:23:41;9.52;;;6.00;;
71303;SDS011;59091;47.446;19.148;2023-12-22T01:26:06;9.27;;;5.13;;
71303;SDS011;59091;47.446;19.148;2023-12-22T01:28:33;8.48;;;4.97;;
71303;SDS011;59091;47.446;19.148;2023-12-22T01:30:59;5.70;;;4.70;;
71303;SDS011;59091;47.446;19.148;2023-12-22T01:33:24;6.35;;;4.70;;
71303;SDS011;59091;47.446;19.148;2023-12-22T01:35:49;7.50;;;4.65;;
71303;SDS011;59091;47.446;19.148;2023-12-22T01:38:15;5.55;;;4.20;;
71303;SDS011;59091;47.446;19.148;2023-12-22T01:40:40;6.55;;;4.32;;
71303;SDS011;59091;47.446;19.148;2023-12-22T01:43:06;5.75;;;4.40;;
71303;SDS011;59091;47.446;19.148;2023-12-22T01:45:31;6.35;;;3.75;;
71303;SDS011;59091;47.446;19.148;2023-12-22T01:47:57;6.28;;;4.00;;
71303;SDS011;59091;47.446;19.148;2023-12-22T01:50:22;4.70;;;3.60;;
71303;SDS011;59091;47.446;19.148;2023-12-22T01:52:48;5.18;;;3.50;;
71303;SDS011;59091;47.446;19.148;2023-12-22T01:55:14;5.63;;;3.50;;
71303;SDS011;59091;47.446;19.148;2023-12-22T01:57:42;4.75;;;3.30;;
71303;SDS011;59091;47.446;19.148;2023-12-22T02:00:09;4.43;;;3.13;;
71303;SDS011;59091;47.446;19.148;2023-12-22T02:02:35;4.32;;;3.33;;
71303;SDS011;59091;47.446;19.148;2023-12-22T02:05:03;4.25;;;3.50;;
71303;SDS011;59091;47.446;19.148;2023-12-22T02:07:29;3.53;;;2.72;;
71303;SDS011;59091;47.446;19.148;2023-12-22T02:09:55;3.95;;;3.15;;
71303;SDS011;59091;47.446;19.148;2023-12-22T02:12:21;3.45;;;3.00;;
71303;SDS011;59091;47.446;19.148;2023-12-22T02:14:47;3.90;;;3.00;;
71303;SDS011;59091;47.446;19.148;2023-12-22T02:17:20;4.03;;;3.20;;
71303;SDS011;59091;47.446;19.148;2023-12-22T02:19:51;4.75;;;2.80;;
71303;SDS011;59091;47.446;19.148;2023-12-22T02:22:18;4.35;;;3.00;;
71303;SDS011;59091;47.446;19.148;2023-12-22T02:24:44;3.65;;;2.70;;
71303;SDS011;59091;47.446;19.148;2023-12-22T02:27:13;6.68;;;2.78;;
71303;SDS011;59091;47.446;19.148;2023-12-22T02:29:52;6.00;;;3.00;;
71303;SDS011;59091;47.446;19.148;2023-12-22T02:32:25;2.90;;;2.25;;
71303;SDS011;59091;47.446;19.148;2023-12-22T02:34:55;3.72;;;2.42;;
71303;SDS011;59091;47.446;19.148;2023-12-22T02:37:22;2.95;;;2.47;;
71303;SDS011;59091;47.446;19.148;2023-12-22T02:39:49;2.47;;;2.25;;
71303;SDS011;59091;47.446;19.148;2023-12-22T02:42:16;2.45;;;2.00;;
71303;SDS011;59091;47.446;19.148;2023-12-22T02:44:42;5.47;;;2.40;;
71303;SDS011;59091;47.446;19.148;2023-12-22T02:47:08;3.72;;;2.20;;
71303;SDS011;59091;47.446;19.148;2023-12-22T02:49:33;2.00;;;1.85;;
71303;SDS011;59091;47.446;19.148;2023-12-22T02:51:59;3.38;;;2.15;;
71303;SDS011;59091;47.446;19.148;2023-12-22T02:54:24;2.67;;;2.00;;
71303;SDS011;59091;47.446;19.148;2023-12-22T02:56:49;2.60;;;1.73;;
71303;SDS011;59091;47.446;19.148;2023-12-22T02:59:15;1.77;;;1.67;;
71303;SDS011;59091;47.446;19.148;2023-12-22T03:01:40;1.83;;;1.55;;
71303;SDS011;59091;47.446;19.148;2023-12-22T03:04:06;2.50;;;1.65;;
71303;SDS011;59091;47.446;19.148;2023-12-22T03:06:31;3.47;;;1.60;;
71303;SDS011;59091;47.446;19.148;2023-12-22T03:08:56;4.30;;;2.00;;
71303;SDS011;59091;47.446;19.148;2023-12-22T03:11:22;2.30;;;1.85;;
71303;SDS011;59091;47.446;19.148;2023-12-22T03:13:50;2.88;;;1.50;;
71303;SDS011;59091;47.446;19.148;2023-12-22T03:16:15;2.92;;;1.77;;
71303;SDS011;59091;47.446;19.148;2023-12-22T03:18:41;2.28;;;1.40;;
71303;SDS011;59091;47.446;19.148;2023-12-22T03:21:06;2.88;;;1.30;;
71303;SDS011;59091;47.446;19.148;2023-12-22T03:23:32;1.80;;;1.50;;
71303;SDS011;59091;47.446;19.148;2023-12-22T03:25:57;2.60;;;1.25;;
71303;SDS011;59091;47.446;19.148;2023-12-22T03:28:22;1.95;;;1.80;;
71303;SDS011;59091;47.446;19.148;2023-12-22T03:30:48;3.20;;;1.98;;
71303;SDS011;59091;47.446;19.148;2023-12-22T03:33:14;2.78;;;2.17;;
71303;SDS011;59091;47.446;19.148;2023-12-22T03:35:39;9.07;;;2.15;;
71303;SDS011;59091;47.446;19.148;2023-12-22T03:38:05;3.30;;;2.15;;
71303;SDS011;59091;47.446;19.148;2023-12-22T03:40:30;3.17;;;2.13;;
71303;SDS011;59091;47.446;19.148;2023-12-22T03:42:56;7.97;;;2.40;;
71303;SDS011;59091;47.446;19.148;2023-12-22T03:45:21;3.72;;;2.30;;
71303;SDS011;59091;47.446;19.148;2023-12-22T03:47:46;3.72;;;2.30;;
71303;SDS011;59091;47.446;19.148;2023-12-22T03:50:12;3.88;;;2.58;;
71303;SDS011;59091;47.446;19.148;2023-12-22T03:52:37;4.28;;;1.90;;
71303;SDS011;59091;47.446;19.148;2023-12-22T03:55:03;1.52;;;1.40;;
71303;SDS011;59091;47.446;19.148;2023-12-22T03:57:28;0.88;;;0.88;;
71303;SDS011;59091;47.446;19.148;2023-12-22T03:59:54;1.83;;;0.85;;
71303;SDS011;59091;47.446;19.148;2023-12-22T04:02:19;0.85;;;0.60;;
71303;SDS011;59091;47.446;19.148;2023-12-22T04:04:44;2.03;;;0.90;;
71303;SDS011;59091;47.446;19.148;2023-12-22T04:07:10;1.67;;;1.00;;
71303;SDS011;59091;47.446;19.148;2023-12-22T04:09:36;2.53;;;1.33;;
71303;SDS011;59091;47.446;19.148;2023-12-22T04:12:03;3.08;;;0.73;;
71303;SDS011;59091;47.446;19.148;2023-12-22T04:14:29;1.75;;;0.85;;
71303;SDS011;59091;47.446;19.148;2023-12-22T04:16:54;6.47;;;0.70;;
71303;SDS011;59091;47.446;19.148;2023-12-22T04:19:20;5.97;;;1.33;;
71303;SDS011;59091;47.446;19.148;2023-12-22T04:21:45;3.17;;;0.93;;
71303;SDS011;59091;47.446;19.148;2023-12-22T04:24:10;1.88;;;1.00;;
71303;SDS011;59091;47.446;19.148;2023-12-22T04:26:36;2.15;;;0.90;;
71303;SDS011;59091;47.446;19.148;2023-12-22T04:29:01;3.55;;;0.73;;
71303;SDS011;59091;47.446;19.148;2023-12-22T04:31:27;2.45;;;0.88;;
71303;SDS011;59091;47.446;19.148;2023-12-22T04:33:52;1.60;;;0.90;;
71303;SDS011;59091;47.446;19.148;2023-12-22T04:36:18;1.90;;;0.70;;
71303;SDS011;59091;47.446;19.148;2023-12-22T04:38:43;2.22;;;0.80;;
71303;SDS011;59091;47.446;19.148;2023-12-22T04:41:08;3.72;;;0.80;;
71303;SDS011;59091;47.446;19.148;2023-12-22T04:43:34;2.10;;;0.70;;
71303;SDS011;59091;47.446;19.148;2023-12-22T04:46:00;1.80;;;0.93;;
71303;SDS011;59091;47.446;19.148;2023-12-22T04:48:25;1.30;;;0.85;;
71303;SDS011;59091;47.446;19.148;2023-12-22T04:50:51;4.97;;;1.02;;
71303;SDS011;59091;47.446;19.148;2023-12-22T04:53:16;3.35;;;0.73;;
71303;SDS011;59091;47.446;19.148;2023-12-22T04:55:41;6.95;;;0.90;;
71303;SDS011;59091;47.446;19.148;2023-12-22T04:58:07;1.77;;;1.00;;
71303;SDS011;59091;47.446;19.148;2023-12-22T05:00:32;4.38;;;0.95;;
71303;SDS011;59091;47.446;19.148;2023-12-22T05:02:57;1.88;;;0.80;;
71303;SDS011;59091;47.446;19.148;2023-12-22T05:05:23;4.53;;;0.95;;
71303;SDS011;59091;47.446;19.148;2023-12-22T05:07:48;2.22;;;0.88;;
71303;SDS011;59091;47.446;19.148;2023-12-22T05:10:14;3.28;;;1.00;;
71303;SDS011;59091;47.446;19.148;2023-12-22T05:12:40;2.03;;;0.77;;
71303;SDS011;59091;47.446;19.148;2023-12-22T05:15:05;7.15;;;1.15;;
71303;SDS011;59091;47.446;19.148;2023-12-22T05:17:31;2.97;;;0.90;;
71303;SDS011;59091;47.446;19.148;2023-12-22T05:19:57;3.17;;;1.15;;
71303;SDS011;59091;47.446;19.148;2023-12-22T05:22:23;2.13;;;0.80;;
71303;SDS011;59091;47.446;19.148;2023-12-22T05:24:48;2.40;;;0.90;;
71303;SDS011;59091;47.446;19.148;2023-12-22T05:27:14;1.17;;;0.80;;
71303;SDS011;59091;47.446;19.148;2023-12-22T05:29:39;2.40;;;0.85;;
71303;SDS011;59091;47.446;19.148;2023-12-22T05:32:05;3.20;;;0.93;;
71303;SDS011;59091;47.446;19.148;2023-12-22T05:34:31;3.85;;;0.80;;
71303;SDS011;59091;47.446;19.148;2023-12-22T05:36:56;3.92;;;1.00;;
71303;SDS011;59091;47.446;19.148;2023-12-22T05:39:21;2.80;;;1.10;;
71303;SDS011;59091;47.446;19.148;2023-12-22T05:41:47;3.65;;;1.20;;
71303;SDS011;59091;47.446;19.148;2023-12-22T05:44:12;3.58;;;0.80;;
71303;SDS011;59091;47.446;19.148;2023-12-22T05:46:38;4.80;;;1.10;;
71303;SDS011;59091;47.446;19.148;2023-12-22T05:49:04;5.47;;;1.20;;
71303;SDS011;59091;47.446;19.148;2023-12-22T05:51:35;3.50;;;1.20;;
71303;SDS011;59091;47.446;19.148;2023-12-22T05:54:07;4.28;;;0.90;;
71303;SDS011;59091;47.446;19.148;2023-12-22T05:56:33;5.60;;;0.98;;
71303;SDS011;59091;47.446;19.148;2023-12-22T05:58:59;1.15;;;1.00;;
71303;SDS011;59091;47.446;19.148;2023-12-22T06:01:24;3.22;;;1.00;;
71303;SDS011;59091;47.446;19.148;2023-12-22T06:03:50;5.45;;;1.05;;
71303;SDS011;59091;47.446;19.148;2023-12-22T06:06:15;1.90;;;1.08;;
71303;SDS011;59091;47.446;19.148;2023-12-22T06:08:41;4.50;;;0.98;;
71303;SDS011;59091;47.446;19.148;2023-12-22T06:11:06;4.60;;;1.48;;
71303;SDS011;59091;47.446;19.148;2023-12-22T06:13:32;2.67;;;1.02;;
71303;SDS011;59091;47.446;19.148;2023-12-22T06:15:57;6.60;;;1.67;;
71303;SDS011;59091;47.446;19.148;2023-12-22T06:18:23;6.03;;;1.10;;
71303;SDS011;59091;47.446;19.148;2023-12-22T06:20:48;3.30;;;1.08;;
71303;SDS011;59091;47.446;19.148;2023-12-22T06:23:13;3.67;;;1.20;;
71303;SDS011;59091;47.446;19.148;2023-12-22T06:25:39;4.75;;;1.20;;
71303;SDS011;59091;47.446;19.148;2023-12-22T06:28:05;7.25;;;1.30;;
71303;SDS011;59091;47.446;19.148;2023-12-22T06:30:30;4.22;;;0.93;;
71303;SDS011;59091;47.446;19.148;2023-12-22T06:32:56;4.90;;;1.13;;
71303;SDS011;59091;47.446;19.148;2023-12-22T06:35:21;4.30;;;1.48;;
71303;SDS011;59091;47.446;19.148;2023-12-22T06:37:50;6.22;;;1.33;;
71303;SDS011;59091;47.446;19.148;2023-12-22T06:40:16;9.52;;;1.40;;
71303;SDS011;59091;47.446;19.148;2023-12-22T06:42:42;5.90;;;1.25;;
71303;SDS011;59091;47.446;19.148;2023-12-22T06:45:07;5.65;;;1.00;;
71303;SDS011;59091;47.446;19.148;2023-12-22T06:47:35;2.03;;;0.80;;
71303;SDS011;59091;47.446;19.148;2023-12-22T06:50:01;2.92;;;1.17;;
71303;SDS011;59091;47.446;19.148;2023-12-22T06:52:26;6.70;;;1.20;;
71303;SDS011;59091;47.446;19.148;2023-12-22T06:54:51;5.40;;;1.10;;
71303;SDS011;59091;47.446;19.148;2023-12-22T06:57:17;3.50;;;1.25;;
71303;SDS011;59091;47.446;19.148;2023-12-22T06:59:42;7.45;;;1.23;;
71303;SDS011;59091;47.446;19.148;2023-12-22T07:02:08;4.03;;;1.05;;
71303;SDS011;59091;47.446;19.148;2023-12-22T07:04:34;3.00;;;1.02;;
71303;SDS011;59091;47.446;19.148;2023-12-22T07:06:59;2.55;;;1.25;;
71303;SDS011;59091;47.446;19.148;2023-12-22T07:11:53;7.10;;;1.45;;
71303;SDS011;59091;47.446;19.148;2023-12-22T07:14:19;11.48;;;1.90;;
71303;SDS011;59091;47.446;19.148;2023-12-22T07:16:45;4.88;;;1.42;;
71303;SDS011;59091;47.446;19.148;2023-12-22T07:19:10;4.60;;;1.48;;
71303;SDS011;59091;47.446;19.148;2023-12-22T07:21:38;3.97;;;1.20;;
71303;SDS011;59091;47.446;19.148;2023-12-22T07:24:04;2.83;;;1.10;;
71303;SDS011;59091;47.446;19.148;2023-12-22T07:26:30;2.97;;;1.00;;
71303;SDS011;59091;47.446;19.148;2023-12-22T07:28:56;4.15;;;1.45;;
71303;SDS011;59091;47.446;19.148;2023-12-22T07:31:21;8.68;;;1.50;;
71303;SDS011;59091;47.446;19.148;2023-12-22T07:33:47;5.43;;;1.15;;
71303;SDS011;59091;47.446;19.148;2023-12-22T07:36:13;4.65;;;1.27;;
71303;SDS011;59091;47.446;19.148;2023-12-22T07:38:38;4.75;;;1.38;;
71303;SDS011;59091;47.446;19.148;2023-12-22T07:41:07;3.22;;;1.15;;
71303;SDS011;59091;47.446;19.148;2023-12-22T07:43:33;2.50;;;1.58;;
71303;SDS011;59091;47.446;19.148;2023-12-22T07:45:58;5.00;;;1.20;;
71303;SDS011;59091;47.446;19.148;2023-12-22T07:48:23;7.53;;;1.52;;
71303;SDS011;59091;47.446;19.148;2023-12-22T07:50:49;5.22;;;1.70;;
71303;SDS011;59091;47.446;19.148;2023-12-22T07:53:15;4.03;;;1.30;;
71303;SDS011;59091;47.446;19.148;2023-12-22T07:55:41;8.43;;;1.80;;
71303;SDS011;59091;47.446;19.148;2023-12-22T07:58:06;4.47;;;1.40;;
71303;SDS011;59091;47.446;19.148;2023-12-22T08:00:32;7.55;;;1.45;;
71303;SDS011;59091;47.446;19.148;2023-12-22T08:02:58;7.20;;;1.58;;
71303;SDS011;59091;47.446;19.148;2023-12-22T08:05:23;8.13;;;1.63;;
71303;SDS011;59091;47.446;19.148;2023-12-22T08:07:49;5.80;;;1.50;;
71303;SDS011;59091;47.446;19.148;2023-12-22T08:10:14;7.90;;;1.40;;
71303;SDS011;59091;47.446;19.148;2023-12-22T08:12:41;4.03;;;1.38;;
71303;SDS011;59091;47.446;19.148;2023-12-22T08:15:06;4.90;;;1.58;;
71303;SDS011;59091;47.446;19.148;2023-12-22T08:17:35;9.60;;;3.10;;
71303;SDS011;59091;47.446;19.148;2023-12-22T08:20:01;13.77;;;3.75;;
71303;SDS011;59091;47.446;19.148;2023-12-22T08:22:26;14.25;;;4.65;;
71303;SDS011;59091;47.446;19.148;2023-12-22T08:24:51;7.07;;;3.33;;
71303;SDS011;59091;47.446;19.148;2023-12-22T08:27:17;5.60;;;1.85;;
71303;SDS011;59091;47.446;19.148;2023-12-22T08:29:42;7.20;;;2.20;;
71303;SDS011;59091;47.446;19.148;2023-12-22T08:32:08;4.28;;;1.45;;
71303;SDS011;59091;47.446;19.148;2023-12-22T08:34:33;9.05;;;1.70;;
71303;SDS011;59091;47.446;19.148;2023-12-22T08:36:59;7.55;;;1.63;;
71303;SDS011;59091;47.446;19.148;2023-12-22T08:39:25;6.00;;;1.27;;
71303;SDS011;59091;47.446;19.148;2023-12-22T08:41:51;4.82;;;1.63;;
71303;SDS011;59091;47.446;19.148;2023-12-22T08:44:17;2.58;;;1.30;;
71303;SDS011;59091;47.446;19.148;2023-12-22T08:46:42;6.65;;;1.45;;
71303;SDS011;59091;47.446;19.148;2023-12-22T08:49:08;7.15;;;1.73;;
71303;SDS011;59091;47.446;19.148;2023-12-22T08:51:33;2.05;;;1.05;;
71303;SDS011;59091;47.446;19.148;2023-12-22T08:53:59;4.13;;;1.40;;
71303;SDS011;59091;47.446;19.148;2023-12-22T08:56:25;4.05;;;1.30;;
71303;SDS011;59091;47.446;19.148;2023-12-22T08:58:51;6.20;;;1.88;;
71303;SDS011;59091;47.446;19.148;2023-12-22T09:01:19;3.83;;;1.30;;
71303;SDS011;59091;47.446;19.148;2023-12-22T09:03:46;5.63;;;1.55;;
71303;SDS011;59091;47.446;19.148;2023-12-22T09:06:17;8.32;;;1.90;;
71303;SDS011;59091;47.446;19.148;2023-12-22T09:08:44;7.07;;;1.70;;
71303;SDS011;59091;47.446;19.148;2023-12-22T09:11:13;6.47;;;2.10;;
71303;SDS011;59091;47.446;19.148;2023-12-22T09:13:40;4.97;;;1.83;;
71303;SDS011;59091;47.446;19.148;2023-12-22T09:16:06;3.72;;;1.50;;
71303;SDS011;59091;47.446;19.148;2023-12-22T09:18:32;4.25;;;1.65;;
71303;SDS011;59091;47.446;19.148;2023-12-22T09:20:58;7.68;;;2.00;;
71303;SDS011;59091;47.446;19.148;2023-12-22T09:23:24;6.07;;;1.92;;
71303;SDS011;59091;47.446;19.148;2023-12-22T09:25:49;1.67;;;1.17;;
71303;SDS011;59091;47.446;19.148;2023-12-22T09:28:15;5.20;;;1.27;;
71303;SDS011;59091;47.446;19.148;2023-12-22T09:30:41;2.22;;;1.30;;
71303;SDS011;59091;47.446;19.148;2023-12-22T09:33:07;5.28;;;1.30;;
71303;SDS011;59091;47.446;19.148;2023-12-22T09:35:34;5.65;;;1.10;;
71303;SDS011;59091;47.446;19.148;2023-12-22T09:38:00;3.58;;;1.20;;
71303;SDS011;59091;47.446;19.148;2023-12-22T09:40:27;2.92;;;1.52;;
71303;SDS011;59091;47.446;19.148;2023-12-22T09:42:55;6.18;;;1.58;;
71303;SDS011;59091;47.446;19.148;2023-12-22T09:45:23;9.93;;;1.42;;
71303;SDS011;59091;47.446;19.148;2023-12-22T09:47:49;5.07;;;1.40;;
71303;SDS011;59091;47.446;19.148;2023-12-22T09:50:16;6.82;;;1.60;;
71303;SDS011;59091;47.446;19.148;2023-12-22T09:52:42;4.93;;;1.40;;
71303;SDS011;59091;47.446;19.148;2023-12-22T09:55:14;4.63;;;1.05;;
71303;SDS011;59091;47.446;19.148;2023-12-22T09:57:39;4.45;;;1.20;;
71303;SDS011;59091;47.446;19.148;2023-12-22T10:00:09;1.73;;;1.10;;
71303;SDS011;59091;47.446;19.148;2023-12-22T10:02:37;3.67;;;1.25;;
71303;SDS011;59091;47.446;19.148;2023-12-22T10:05:03;3.83;;;1.20;;
71303;SDS011;59091;47.446;19.148;2023-12-22T10:07:29;4.50;;;1.45;;
71303;SDS011;59091;47.446;19.148;2023-12-22T10:09:56;7.80;;;1.50;;
71303;SDS011;59091;47.446;19.148;2023-12-22T10:12:22;5.25;;;1.30;;
71303;SDS011;59091;47.446;19.148;2023-12-22T10:14:50;6.85;;;1.48;;
71303;SDS011;59091;47.446;19.148;2023-12-22T10:17:16;1.25;;;0.90;;
71303;SDS011;59091;47.446;19.148;2023-12-22T10:19:42;1.60;;;0.88;;
71303;SDS011;59091;47.446;19.148;2023-12-22T10:22:08;4.03;;;1.10;;
71303;SDS011;59091;47.446;19.148;2023-12-22T10:24:43;1.13;;;0.90;;
71303;SDS011;59091;47.446;19.148;2023-12-22T10:27:15;3.97;;;1.40;;
71303;SDS011;59091;47.446;19.148;2023-12-22T10:29:47;1.70;;;1.30;;
71303;SDS011;59091;47.446;19.148;2023-12-22T10:32:13;4.68;;;1.20;;
71303;SDS011;59091;47.446;19.148;2023-12-22T10:34:39;0.93;;;0.70;;
71303;SDS011;59091;47.446;19.148;2023-12-22T10:37:04;3.50;;;1.02;;
71303;SDS011;59091;47.446;19.148;2023-12-22T10:39:30;1.42;;;0.80;;
71303;SDS011;59091;47.446;19.148;2023-12-22T10:41:56;1.55;;;0.90;;
71303;SDS011;59091;47.446;19.148;2023-12-22T10:44:26;2.25;;;0.93;;
71303;SDS011;59091;47.446;19.148;2023-12-22T10:46:52;3.42;;;1.15;;
71303;SDS011;59091;47.446;19.148;2023-12-22T10:49:19;2.75;;;1.00;;
71303;SDS011;59091;47.446;19.148;2023-12-22T10:51:45;1.90;;;1.00;;
71303;SDS011;59091;47.446;19.148;2023-12-22T10:54:11;3.22;;;1.08;;
71303;SDS011;59091;47.446;19.148;2023-12-22T10:56:36;1.90;;;0.98;;
71303;SDS011;59091;47.446;19.148;2023-12-22T10:59:02;2.42;;;1.00;;
71303;SDS011;59091;47.446;19.148;2023-12-22T11:01:28;1.65;;;1.00;;
71303;SDS011;59091;47.446;19.148;2023-12-22T11:04:02;2.30;;;1.00;;
71303;SDS011;59091;47.446;19.148;2023-12-22T11:06:29;2.10;;;0.98;;
71303;SDS011;59091;47.446;19.148;2023-12-22T11:08:58;1.20;;;0.95;;
71303;SDS011;59091;47.446;19.148;2023-12-22T11:11:32;1.52;;;1.15;;
71303;SDS011;59091;47.446;19.148;2023-12-22T11:13:59;2.30;;;1.02;;
71303;SDS011;59091;47.446;19.148;2023-12-22T11:16:27;3.97;;;0.82;;
71303;SDS011;59091;47.446;19.148;2023-12-22T11:18:54;2.58;;;0.88;;
71303;SDS011;59091;47.446;19.148;2023-12-22T11:21:23;6.18;;;1.00;;
71303;SDS011;59091;47.446;19.148;2023-12-22T11:23:50;2.08;;;1.17;;
71303;SDS011;59091;47.446;19.148;2023-12-22T11:26:20;2.33;;;1.10;;
71303;SDS011;59091;47.446;19.148;2023-12-22T11:28:46;1.33;;;0.80;;
71303;SDS011;59091;47.446;19.148;2023-12-22T11:31:13;2.97;;;1.08;;
71303;SDS011;59091;47.446;19.148;2023-12-22T11:33:43;2.13;;;0.90;;
71303;SDS011;59091;47.446;19.148;2023-12-22T11:36:11;3.45;;;1.15;;
71303;SDS011;59091;47.446;19.148;2023-12-22T11:38:37;1.20;;;1.10;;
71303;SDS011;59091;47.446;19.148;2023-12-22T11:41:02;6.75;;;0.95;;
71303;SDS011;59091;47.446;19.148;2023-12-22T11:43:29;0.90;;;0.80;;
71303;SDS011;59091;47.446;19.148;2023-12-22T11:46:00;1.65;;;1.10;;
71303;SDS011;59091;47.446;19.148;2023-12-22T11:48:28;1.48;;;0.85;;
71303;SDS011;59091;47.446;19.148;2023-12-22T11:50:54;1.00;;;0.80;;
71303;SDS011;59091;47.446;19.148;2023-12-22T11:53:23;2.42;;;0.90;;
71303;SDS011;59091;47.446;19.148;2023-12-22T11:56:05;1.58;;;0.75;;
71303;SDS011;59091;47.446;19.148;2023-12-22T11:58:41;1.25;;;0.80;;
71303;SDS011;59091;47.446;19.148;2023-12-22T12:01:16;1.50;;;0.85;;
71303;SDS011;59091;47.446;19.148;2023-12-22T12:03:52;1.23;;;0.82;;
71303;SDS011;59091;47.446;19.148;2023-12-22T12:08:59;4.32;;;1.17;;
71303;SDS011;59091;47.446;19.148;2023-12-22T12:14:32;2.50;;;0.90;;
71303;SDS011;59091;47.446;19.148;2023-12-22T12:17:06;4.38;;;1.17;;
71303;SDS011;59091;47.446;19.148;2023-12-22T12:19:39;0.90;;;0.90;;
71303;SDS011;59091;47.446;19.148;2023-12-22T12:24:32;1.63;;;0.77;;
71303;SDS011;59091;47.446;19.148;2023-12-22T12:26:58;1.63;;;0.90;;
71303;SDS011;59091;47.446;19.148;2023-12-22T12:29:23;2.58;;;1.00;;
71303;SDS011;59091;47.446;19.148;2023-12-22T12:31:49;2.55;;;0.75;;
71303;SDS011;59091;47.446;19.148;2023-12-22T12:34:15;1.80;;;0.80;;
71303;SDS011;59091;47.446;19.148;2023-12-22T12:36:45;5.90;;;0.90;;
71303;SDS011;59091;47.446;19.148;2023-12-22T12:39:14;1.10;;;1.00;;
71303;SDS011;59091;47.446;19.148;2023-12-22T12:41:41;2.55;;;0.70;;
71303;SDS011;59091;47.446;19.148;2023-12-22T12:44:09;4.97;;;0.88;;
71303;SDS011;59091;47.446;19.148;2023-12-22T12:46:38;1.83;;;0.70;;
71303;SDS011;59091;47.446;19.148;2023-12-22T12:49:10;2.13;;;0.68;;
71303;SDS011;59091;47.446;19.148;2023-12-22T12:51:37;0.85;;;0.80;;
71303;SDS011;59091;47.446;19.148;2023-12-22T12:54:04;3.35;;;0.80;;
71303;SDS011;59091;47.446;19.148;2023-12-22T12:56:36;1.48;;;0.60;;
71303;SDS011;59091;47.446;19.148;2023-12-22T12:59:08;2.53;;;0.90;;
71303;SDS011;59091;47.446;19.148;2023-12-22T13:01:41;0.82;;;0.73;;
71303;SDS011;59091;47.446;19.148;2023-12-22T13:04:10;2.38;;;0.90;;
71303;SDS011;59091;47.446;19.148;2023-12-22T13:06:44;1.80;;;0.80;;
71303;SDS011;59091;47.446;19.148;2023-12-22T13:09:13;1.15;;;0.80;;
71303;SDS011;59091;47.446;19.148;2023-12-22T13:11:40;0.93;;;0.80;;
71303;SDS011;59091;47.446;19.148;2023-12-22T13:14:07;0.70;;;0.70;;
71303;SDS011;59091;47.446;19.148;2023-12-22T13:16:34;1.55;;;1.00;;
71303;SDS011;59091;47.446;19.148;2023-12-22T13:19:01;2.28;;;1.38;;
71303;SDS011;59091;47.446;19.148;2023-12-22T13:21:27;0.90;;;0.90;;
71303;SDS011;59091;47.446;19.148;2023-12-22T13:24:13;0.98;;;0.88;;
71303;SDS011;59091;47.446;19.148;2023-12-22T13:26:41;1.52;;;0.88;;
71303;SDS011;59091;47.446;19.148;2023-12-22T13:29:07;6.47;;;1.15;;
71303;SDS011;59091;47.446;19.148;2023-12-22T13:31:33;2.03;;;0.93;;
71303;SDS011;59091;47.446;19.148;2023-12-22T13:34:02;2.47;;;1.00;;
71303;SDS011;59091;47.446;19.148;2023-12-22T13:36:28;2.20;;;0.90;;
71303;SDS011;59091;47.446;19.148;2023-12-22T13:38:59;3.75;;;1.00;;
71303;SDS011;59091;47.446;19.148;2023-12-22T13:41:24;3.08;;;1.30;;
71303;SDS011;59091;47.446;19.148;2023-12-22T13:43:50;1.38;;;1.00;;
71303;SDS011;59091;47.446;19.148;2023-12-22T13:46:15;3.15;;;0.98;;
71303;SDS011;59091;47.446;19.148;2023-12-22T13:48:41;1.30;;;0.90;;
71303;SDS011;59091;47.446;19.148;2023-12-22T13:51:07;2.65;;;1.17;;
71303;SDS011;59091;47.446;19.148;2023-12-22T13:53:33;2.50;;;1.10;;
71303;SDS011;59091;47.446;19.148;2023-12-22T13:56:00;3.35;;;1.23;;
71303;SDS011;59091;47.446;19.148;2023-12-22T13:58:26;2.72;;;1.50;;
71303;SDS011;59091;47.446;19.148;2023-12-22T14:00:52;3.30;;;1.50;;
71303;SDS011;59091;47.446;19.148;2023-12-22T14:03:18;2.03;;;1.40;;
71303;SDS011;59091;47.446;19.148;2023-12-22T14:05:50;1.05;;;1.00;;
71303;SDS011;59091;47.446;19.148;2023-12-22T14:08:18;3.42;;;1.30;;
71303;SDS011;59091;47.446;19.148;2023-12-22T14:10:47;1.98;;;1.15;;
71303;SDS011;59091;47.446;19.148;2023-12-22T14:13:13;2.10;;;1.40;;
71303;SDS011;59091;47.446;19.148;2023-12-22T14:15:41;3.08;;;1.42;;
71303;SDS011;59091;47.446;19.148;2023-12-22T14:18:08;3.53;;;1.23;;
71303;SDS011;59091;47.446;19.148;2023-12-22T14:20:33;1.25;;;0.80;;
71303;SDS011;59091;47.446;19.148;2023-12-22T14:22:59;1.60;;;1.20;;
71303;SDS011;59091;47.446;19.148;2023-12-22T14:25:24;0.77;;;0.70;;
71303;SDS011;59091;47.446;19.148;2023-12-22T14:27:51;0.65;;;0.65;;
71303;SDS011;59091;47.446;19.148;2023-12-22T14:30:18;8.13;;;1.20;;
71303;SDS011;59091;47.446;19.148;2023-12-22T14:32:44;3.17;;;1.50;;
71303;SDS011;59091;47.446;19.148;2023-12-22T14:35:09;1.27;;;1.17;;
71303;SDS011;59091;47.446;19.148;2023-12-22T14:37:35;4.72;;;1.17;;
71303;SDS011;59091;47.446;19.148;2023-12-22T14:40:01;1.55;;;1.17;;